Montrose, West Virginia
Current Conditions -  °F | °C
As of 2:51 AM on Wednesday 22 Oct 2014 (Local Time) from KEKN Reporting Station
Light Rain Light Rain  
Wind Chill: 40°   Ceiling: 700
Heat Index: 44°   Visibility: 4mi
Dew Point: 44°   Wind: 7mph
Humidity: 100%   Direction: 310°NW
Pressure: 30.01"   Gusts: NA
Location:  39.07°N, 79.81°W
Report Text: KEKN 220651Z AUTO 31006KT 4SM -RA BR OVC007 07/07 A3001 RMK AO2 RAB04 CIG 005V012 SLP173 P0001 T00670067 TSNO
Loading
Personal Weather Stations






























Interactive Weather Map
Tropical Storm Tracking
New forecast layout! Learn more

10-Day Weather Forecast

Advertisements
Track Severe Weather on mobile